sensor_id;sensor_type;location;lat;lon;timestamp;P1;durP1;ratioP1;P2;durP2;ratioP2
68214;SDS011;55036;52.138;5.236;2023-04-24T00:00:46;1.30;;;0.90;;
68214;SDS011;55036;52.138;5.236;2023-04-24T00:03:13;2.28;;;0.77;;
68214;SDS011;55036;52.138;5.236;2023-04-24T00:05:40;2.15;;;1.08;;
68214;SDS011;55036;52.138;5.236;2023-04-24T00:08:08;2.40;;;1.00;;
68214;SDS011;55036;52.138;5.236;2023-04-24T00:10:34;2.13;;;1.58;;
68214;SDS011;55036;52.138;5.236;2023-04-24T00:13:01;2.63;;;1.77;;
68214;SDS011;55036;52.138;5.236;2023-04-24T00:15:28;1.88;;;1.33;;
68214;SDS011;55036;52.138;5.236;2023-04-24T00:17:54;3.97;;;1.10;;
68214;SDS011;55036;52.138;5.236;2023-04-24T00:20:21;2.33;;;0.68;;
68214;SDS011;55036;52.138;5.236;2023-04-24T00:22:48;0.55;;;0.55;;
68214;SDS011;55036;52.138;5.236;2023-04-24T00:25:15;0.50;;;0.50;;
68214;SDS011;55036;52.138;5.236;2023-04-24T00:27:42;0.88;;;0.65;;
68214;SDS011;55036;52.138;5.236;2023-04-24T00:30:09;0.73;;;0.73;;
68214;SDS011;55036;52.138;5.236;2023-04-24T00:32:36;1.25;;;0.80;;
68214;SDS011;55036;52.138;5.236;2023-04-24T00:35:02;2.85;;;0.90;;
68214;SDS011;55036;52.138;5.236;2023-04-24T00:37:30;1.80;;;0.80;;
68214;SDS011;55036;52.138;5.236;2023-04-24T00:39:56;0.82;;;0.70;;
68214;SDS011;55036;52.138;5.236;2023-04-24T00:42:23;1.10;;;0.88;;
68214;SDS011;55036;52.138;5.236;2023-04-24T00:44:50;2.08;;;0.90;;
68214;SDS011;55036;52.138;5.236;2023-04-24T00:47:17;3.03;;;0.82;;
68214;SDS011;55036;52.138;5.236;2023-04-24T00:49:45;3.65;;;0.85;;
68214;SDS011;55036;52.138;5.236;2023-04-24T00:52:12;1.08;;;0.98;;
68214;SDS011;55036;52.138;5.236;2023-04-24T00:54:44;2.10;;;0.90;;
68214;SDS011;55036;52.138;5.236;2023-04-24T00:57:13;1.85;;;0.95;;
68214;SDS011;55036;52.138;5.236;2023-04-24T00:59:41;1.45;;;0.82;;
68214;SDS011;55036;52.138;5.236;2023-04-24T01:02:09;1.77;;;1.05;;
68214;SDS011;55036;52.138;5.236;2023-04-24T01:04:38;2.60;;;1.08;;
68214;SDS011;55036;52.138;5.236;2023-04-24T01:07:06;2.45;;;1.10;;
68214;SDS011;55036;52.138;5.236;2023-04-24T01:09:40;1.95;;;1.00;;
68214;SDS011;55036;52.138;5.236;2023-04-24T01:12:10;2.55;;;1.58;;
68214;SDS011;55036;52.138;5.236;2023-04-24T01:14:37;1.90;;;1.40;;
68214;SDS011;55036;52.138;5.236;2023-04-24T01:17:04;3.25;;;1.60;;
68214;SDS011;55036;52.138;5.236;2023-04-24T01:19:31;3.13;;;2.00;;
68214;SDS011;55036;52.138;5.236;2023-04-24T01:21:59;3.75;;;2.30;;
68214;SDS011;55036;52.138;5.236;2023-04-24T01:24:28;3.78;;;2.42;;
68214;SDS011;55036;52.138;5.236;2023-04-24T01:26:56;4.07;;;3.08;;
68214;SDS011;55036;52.138;5.236;2023-04-24T01:29:23;5.38;;;3.15;;
68214;SDS011;55036;52.138;5.236;2023-04-24T01:31:50;4.22;;;2.97;;
68214;SDS011;55036;52.138;5.236;2023-04-24T01:34:17;4.28;;;3.45;;
68214;SDS011;55036;52.138;5.236;2023-04-24T01:36:45;4.00;;;2.95;;
68214;SDS011;55036;52.138;5.236;2023-04-24T01:39:12;3.47;;;3.00;;
68214;SDS011;55036;52.138;5.236;2023-04-24T01:41:39;4.65;;;3.75;;
68214;SDS011;55036;52.138;5.236;2023-04-24T01:44:06;4.75;;;3.60;;
68214;SDS011;55036;52.138;5.236;2023-04-24T01:46:33;5.13;;;3.50;;
68214;SDS011;55036;52.138;5.236;2023-04-24T01:49:01;4.32;;;3.60;;
68214;SDS011;55036;52.138;5.236;2023-04-24T01:51:28;5.85;;;3.83;;
68214;SDS011;55036;52.138;5.236;2023-04-24T01:53:56;5.75;;;3.55;;
68214;SDS011;55036;52.138;5.236;2023-04-24T01:56:22;5.95;;;3.97;;
68214;SDS011;55036;52.138;5.236;2023-04-24T01:58:50;5.03;;;3.72;;
68214;SDS011;55036;52.138;5.236;2023-04-24T02:01:18;4.25;;;3.63;;
68214;SDS011;55036;52.138;5.236;2023-04-24T02:03:46;6.07;;;4.22;;
68214;SDS011;55036;52.138;5.236;2023-04-24T02:06:13;5.95;;;5.03;;
68214;SDS011;55036;52.138;5.236;2023-04-24T02:08:40;6.63;;;5.15;;
68214;SDS011;55036;52.138;5.236;2023-04-24T02:11:08;5.53;;;4.45;;
68214;SDS011;55036;52.138;5.236;2023-04-24T02:13:35;9.25;;;5.68;;
68214;SDS011;55036;52.138;5.236;2023-04-24T02:16:02;5.00;;;4.50;;
68214;SDS011;55036;52.138;5.236;2023-04-24T02:18:29;6.93;;;4.85;;
68214;SDS011;55036;52.138;5.236;2023-04-24T02:20:56;7.50;;;4.30;;
68214;SDS011;55036;52.138;5.236;2023-04-24T02:23:22;6.80;;;4.55;;
68214;SDS011;55036;52.138;5.236;2023-04-24T02:25:49;6.38;;;4.68;;
68214;SDS011;55036;52.138;5.236;2023-04-24T02:28:16;6.30;;;4.38;;
68214;SDS011;55036;52.138;5.236;2023-04-24T02:30:42;5.78;;;4.70;;
68214;SDS011;55036;52.138;5.236;2023-04-24T02:33:09;6.97;;;4.40;;
68214;SDS011;55036;52.138;5.236;2023-04-24T02:35:37;5.32;;;4.45;;
68214;SDS011;55036;52.138;5.236;2023-04-24T02:38:03;5.35;;;4.40;;
68214;SDS011;55036;52.138;5.236;2023-04-24T02:40:31;5.07;;;4.05;;
68214;SDS011;55036;52.138;5.236;2023-04-24T02:42:58;6.97;;;4.10;;
68214;SDS011;55036;52.138;5.236;2023-04-24T02:45:25;5.15;;;3.58;;
68214;SDS011;55036;52.138;5.236;2023-04-24T02:47:51;5.45;;;2.97;;
68214;SDS011;55036;52.138;5.236;2023-04-24T02:50:18;4.88;;;2.30;;
68214;SDS011;55036;52.138;5.236;2023-04-24T02:52:44;2.55;;;2.03;;
68214;SDS011;55036;52.138;5.236;2023-04-24T02:55:11;4.05;;;2.00;;
68214;SDS011;55036;52.138;5.236;2023-04-24T02:57:38;2.13;;;1.63;;
68214;SDS011;55036;52.138;5.236;2023-04-24T03:00:06;5.00;;;1.70;;
68214;SDS011;55036;52.138;5.236;2023-04-24T03:02:35;3.15;;;1.70;;
68214;SDS011;55036;52.138;5.236;2023-04-24T03:05:02;3.13;;;1.75;;
68214;SDS011;55036;52.138;5.236;2023-04-24T03:07:30;1.95;;;1.30;;
68214;SDS011;55036;52.138;5.236;2023-04-24T03:09:57;2.50;;;1.50;;
68214;SDS011;55036;52.138;5.236;2023-04-24T03:12:24;1.42;;;1.27;;
68214;SDS011;55036;52.138;5.236;2023-04-24T03:14:51;3.75;;;1.60;;
68214;SDS011;55036;52.138;5.236;2023-04-24T03:17:18;2.33;;;1.52;;
68214;SDS011;55036;52.138;5.236;2023-04-24T03:19:44;2.80;;;1.35;;
68214;SDS011;55036;52.138;5.236;2023-04-24T03:22:11;1.90;;;1.40;;
68214;SDS011;55036;52.138;5.236;2023-04-24T03:24:38;4.03;;;1.20;;
68214;SDS011;55036;52.138;5.236;2023-04-24T03:27:05;3.03;;;1.55;;
68214;SDS011;55036;52.138;5.236;2023-04-24T03:29:31;2.50;;;1.30;;
68214;SDS011;55036;52.138;5.236;2023-04-24T03:31:58;2.13;;;1.48;;
68214;SDS011;55036;52.138;5.236;2023-04-24T03:34:25;2.22;;;1.42;;
68214;SDS011;55036;52.138;5.236;2023-04-24T03:36:52;3.38;;;1.45;;
68214;SDS011;55036;52.138;5.236;2023-04-24T03:39:18;1.40;;;1.05;;
68214;SDS011;55036;52.138;5.236;2023-04-24T03:41:45;2.13;;;1.23;;
68214;SDS011;55036;52.138;5.236;2023-04-24T03:44:12;2.70;;;1.33;;
68214;SDS011;55036;52.138;5.236;2023-04-24T03:46:38;1.40;;;1.13;;
68214;SDS011;55036;52.138;5.236;2023-04-24T03:49:05;1.52;;;1.15;;
68214;SDS011;55036;52.138;5.236;2023-04-24T03:51:32;1.67;;;1.10;;
68214;SDS011;55036;52.138;5.236;2023-04-24T03:53:58;1.85;;;1.08;;
68214;SDS011;55036;52.138;5.236;2023-04-24T03:56:25;0.85;;;0.75;;
68214;SDS011;55036;52.138;5.236;2023-04-24T03:58:52;1.52;;;0.95;;
68214;SDS011;55036;52.138;5.236;2023-04-24T04:01:18;2.55;;;1.10;;
68214;SDS011;55036;52.138;5.236;2023-04-24T04:03:46;1.95;;;1.40;;
68214;SDS011;55036;52.138;5.236;2023-04-24T04:06:14;3.75;;;1.30;;
68214;SDS011;55036;52.138;5.236;2023-04-24T04:08:40;2.00;;;1.30;;
68214;SDS011;55036;52.138;5.236;2023-04-24T04:11:07;2.67;;;1.35;;
68214;SDS011;55036;52.138;5.236;2023-04-24T04:13:34;2.88;;;1.60;;
68214;SDS011;55036;52.138;5.236;2023-04-24T04:16:00;2.25;;;1.50;;
68214;SDS011;55036;52.138;5.236;2023-04-24T04:18:27;4.68;;;1.75;;
68214;SDS011;55036;52.138;5.236;2023-04-24T04:20:54;2.75;;;1.65;;
68214;SDS011;55036;52.138;5.236;2023-04-24T04:23:20;2.63;;;1.70;;
68214;SDS011;55036;52.138;5.236;2023-04-24T04:25:47;4.32;;;2.13;;
68214;SDS011;55036;52.138;5.236;2023-04-24T04:28:14;4.18;;;2.08;;
68214;SDS011;55036;52.138;5.236;2023-04-24T04:30:41;4.72;;;2.60;;
68214;SDS011;55036;52.138;5.236;2023-04-24T04:33:08;4.40;;;2.53;;
68214;SDS011;55036;52.138;5.236;2023-04-24T04:35:36;4.97;;;2.47;;
68214;SDS011;55036;52.138;5.236;2023-04-24T04:38:03;4.25;;;2.85;;
68214;SDS011;55036;52.138;5.236;2023-04-24T04:40:30;3.88;;;2.85;;
68214;SDS011;55036;52.138;5.236;2023-04-24T04:42:57;4.70;;;3.25;;
68214;SDS011;55036;52.138;5.236;2023-04-24T04:45:24;5.57;;;3.65;;
68214;SDS011;55036;52.138;5.236;2023-04-24T04:47:53;5.75;;;3.85;;
68214;SDS011;55036;52.138;5.236;2023-04-24T04:50:21;7.22;;;4.10;;
68214;SDS011;55036;52.138;5.236;2023-04-24T04:52:49;6.45;;;3.83;;
68214;SDS011;55036;52.138;5.236;2023-04-24T04:55:16;5.55;;;3.97;;
68214;SDS011;55036;52.138;5.236;2023-04-24T04:57:42;4.55;;;3.35;;
68214;SDS011;55036;52.138;5.236;2023-04-24T05:00:09;5.63;;;4.00;;
68214;SDS011;55036;52.138;5.236;2023-04-24T05:02:37;11.18;;;4.13;;
68214;SDS011;55036;52.138;5.236;2023-04-24T05:05:05;6.45;;;3.80;;
68214;SDS011;55036;52.138;5.236;2023-04-24T05:07:33;6.68;;;3.60;;
68214;SDS011;55036;52.138;5.236;2023-04-24T05:10:00;5.88;;;3.60;;
68214;SDS011;55036;52.138;5.236;2023-04-24T05:12:27;7.90;;;3.72;;
68214;SDS011;55036;52.138;5.236;2023-04-24T05:14:54;6.93;;;4.13;;
68214;SDS011;55036;52.138;5.236;2023-04-24T05:17:20;7.15;;;4.07;;
68214;SDS011;55036;52.138;5.236;2023-04-24T05:19:47;5.32;;;3.35;;
68214;SDS011;55036;52.138;5.236;2023-04-24T05:22:14;5.10;;;3.58;;
68214;SDS011;55036;52.138;5.236;2023-04-24T05:24:41;6.82;;;3.60;;
68214;SDS011;55036;52.138;5.236;2023-04-24T05:27:07;6.57;;;2.85;;
68214;SDS011;55036;52.138;5.236;2023-04-24T05:29:34;5.88;;;3.10;;
68214;SDS011;55036;52.138;5.236;2023-04-24T05:32:01;6.13;;;2.60;;
68214;SDS011;55036;52.138;5.236;2023-04-24T05:34:27;4.25;;;2.33;;
68214;SDS011;55036;52.138;5.236;2023-04-24T05:36:54;7.68;;;2.35;;
68214;SDS011;55036;52.138;5.236;2023-04-24T05:39:21;6.22;;;2.47;;
68214;SDS011;55036;52.138;5.236;2023-04-24T05:41:48;5.20;;;1.83;;
68214;SDS011;55036;52.138;5.236;2023-04-24T05:44:14;2.65;;;1.73;;
68214;SDS011;55036;52.138;5.236;2023-04-24T05:46:41;4.70;;;1.38;;
68214;SDS011;55036;52.138;5.236;2023-04-24T05:49:08;2.58;;;1.05;;
68214;SDS011;55036;52.138;5.236;2023-04-24T05:51:35;2.40;;;1.08;;
68214;SDS011;55036;52.138;5.236;2023-04-24T05:54:01;1.25;;;0.95;;
68214;SDS011;55036;52.138;5.236;2023-04-24T05:56:29;1.13;;;0.60;;
68214;SDS011;55036;52.138;5.236;2023-04-24T05:58:56;1.25;;;0.47;;
68214;SDS011;55036;52.138;5.236;2023-04-24T06:01:23;2.33;;;0.60;;
68214;SDS011;55036;52.138;5.236;2023-04-24T06:03:51;2.53;;;0.60;;
68214;SDS011;55036;52.138;5.236;2023-04-24T06:06:19;0.70;;;0.60;;
68214;SDS011;55036;52.138;5.236;2023-04-24T06:08:45;1.45;;;0.70;;
68214;SDS011;55036;52.138;5.236;2023-04-24T06:11:12;1.80;;;0.65;;
68214;SDS011;55036;52.138;5.236;2023-04-24T06:13:39;3.33;;;0.90;;
68214;SDS011;55036;52.138;5.236;2023-04-24T06:16:05;2.90;;;0.60;;
68214;SDS011;55036;52.138;5.236;2023-04-24T06:18:32;2.05;;;0.95;;
68214;SDS011;55036;52.138;5.236;2023-04-24T06:20:59;3.00;;;1.10;;
68214;SDS011;55036;52.138;5.236;2023-04-24T06:23:25;1.90;;;1.25;;
68214;SDS011;55036;52.138;5.236;2023-04-24T06:25:52;3.50;;;2.05;;
68214;SDS011;55036;52.138;5.236;2023-04-24T06:28:19;6.22;;;2.13;;
68214;SDS011;55036;52.138;5.236;2023-04-24T06:30:45;4.38;;;2.67;;
68214;SDS011;55036;52.138;5.236;2023-04-24T06:33:12;5.63;;;3.28;;
68214;SDS011;55036;52.138;5.236;2023-04-24T06:38:11;8.35;;;4.75;;
68214;SDS011;55036;52.138;5.236;2023-04-24T06:40:37;8.95;;;5.53;;
68214;SDS011;55036;52.138;5.236;2023-04-24T06:43:04;9.48;;;6.25;;
68214;SDS011;55036;52.138;5.236;2023-04-24T06:45:32;12.90;;;6.28;;
68214;SDS011;55036;52.138;5.236;2023-04-24T06:47:59;11.05;;;6.43;;
68214;SDS011;55036;52.138;5.236;2023-04-24T06:50:25;11.27;;;7.50;;
68214;SDS011;55036;52.138;5.236;2023-04-24T06:52:52;10.30;;;6.68;;
68214;SDS011;55036;52.138;5.236;2023-04-24T06:55:19;15.18;;;9.18;;
68214;SDS011;55036;52.138;5.236;2023-04-24T06:57:46;15.98;;;8.27;;
68214;SDS011;55036;52.138;5.236;2023-04-24T07:00:12;11.75;;;8.95;;
68214;SDS011;55036;52.138;5.236;2023-04-24T07:02:40;15.52;;;7.95;;
68214;SDS011;55036;52.138;5.236;2023-04-24T07:05:07;17.23;;;8.18;;
68214;SDS011;55036;52.138;5.236;2023-04-24T07:07:34;13.82;;;7.90;;
68214;SDS011;55036;52.138;5.236;2023-04-24T07:10:04;15.68;;;7.25;;
68214;SDS011;55036;52.138;5.236;2023-04-24T07:12:31;13.20;;;7.82;;
68214;SDS011;55036;52.138;5.236;2023-04-24T07:14:59;12.07;;;7.38;;
68214;SDS011;55036;52.138;5.236;2023-04-24T07:17:26;18.73;;;8.30;;
68214;SDS011;55036;52.138;5.236;2023-04-24T07:19:53;13.65;;;6.78;;
68214;SDS011;55036;52.138;5.236;2023-04-24T07:22:20;17.73;;;7.57;;
68214;SDS011;55036;52.138;5.236;2023-04-24T07:24:47;14.57;;;7.35;;
68214;SDS011;55036;52.138;5.236;2023-04-24T07:27:13;12.52;;;7.22;;
68214;SDS011;55036;52.138;5.236;2023-04-24T07:29:41;16.75;;;6.88;;
68214;SDS011;55036;52.138;5.236;2023-04-24T07:32:08;15.75;;;7.75;;
68214;SDS011;55036;52.138;5.236;2023-04-24T07:34:35;14.88;;;8.05;;
68214;SDS011;55036;52.138;5.236;2023-04-24T07:37:02;15.15;;;6.68;;
68214;SDS011;55036;52.138;5.236;2023-04-24T07:39:29;14.40;;;7.95;;
68214;SDS011;55036;52.138;5.236;2023-04-24T07:41:56;13.50;;;7.03;;
68214;SDS011;55036;52.138;5.236;2023-04-24T07:44:24;10.63;;;6.35;;
68214;SDS011;55036;52.138;5.236;2023-04-24T07:46:51;14.90;;;7.03;;
68214;SDS011;55036;52.138;5.236;2023-04-24T07:49:18;12.15;;;6.50;;
68214;SDS011;55036;52.138;5.236;2023-04-24T07:51:45;16.67;;;7.72;;
68214;SDS011;55036;52.138;5.236;2023-04-24T07:54:12;16.17;;;6.10;;
68214;SDS011;55036;52.138;5.236;2023-04-24T07:56:38;18.23;;;6.50;;
68214;SDS011;55036;52.138;5.236;2023-04-24T07:59:08;14.43;;;5.50;;
68214;SDS011;55036;52.138;5.236;2023-04-24T08:01:36;15.93;;;4.20;;
68214;SDS011;55036;52.138;5.236;2023-04-24T08:04:03;13.95;;;4.57;;
68214;SDS011;55036;52.138;5.236;2023-04-24T08:06:30;16.80;;;4.10;;
68214;SDS011;55036;52.138;5.236;2023-04-24T08:08:58;16.80;;;3.78;;
68214;SDS011;55036;52.138;5.236;2023-04-24T08:11:25;18.52;;;3.90;;
68214;SDS011;55036;52.138;5.236;2023-04-24T08:13:52;10.20;;;3.22;;
68214;SDS011;55036;52.138;5.236;2023-04-24T08:16:20;19.73;;;3.80;;
68214;SDS011;55036;52.138;5.236;2023-04-24T08:18:47;16.55;;;3.83;;
68214;SDS011;55036;52.138;5.236;2023-04-24T08:21:14;23.42;;;3.78;;
68214;SDS011;55036;52.138;5.236;2023-04-24T08:23:43;16.65;;;3.78;;
68214;SDS011;55036;52.138;5.236;2023-04-24T08:26:10;20.15;;;4.70;;
68214;SDS011;55036;52.138;5.236;2023-04-24T08:28:38;14.82;;;3.10;;
68214;SDS011;55036;52.138;5.236;2023-04-24T08:31:05;19.08;;;3.35;;
68214;SDS011;55036;52.138;5.236;2023-04-24T08:33:31;13.63;;;3.33;;
68214;SDS011;55036;52.138;5.236;2023-04-24T08:36:04;14.25;;;3.20;;
68214;SDS011;55036;52.138;5.236;2023-04-24T08:38:32;9.77;;;2.40;;
68214;SDS011;55036;52.138;5.236;2023-04-24T08:41:00;9.80;;;2.22;;
68214;SDS011;55036;52.138;5.236;2023-04-24T08:43:27;15.20;;;2.42;;
68214;SDS011;55036;52.138;5.236;2023-04-24T08:45:57;11.38;;;2.55;;
68214;SDS011;55036;52.138;5.236;2023-04-24T08:48:24;12.82;;;2.85;;
68214;SDS011;55036;52.138;5.236;2023-04-24T08:50:56;8.23;;;2.10;;
68214;SDS011;55036;52.138;5.236;2023-04-24T08:53:24;12.52;;;2.38;;
68214;SDS011;55036;52.138;5.236;2023-04-24T08:55:51;5.32;;;2.05;;
68214;SDS011;55036;52.138;5.236;2023-04-24T08:58:21;6.47;;;2.22;;
68214;SDS011;55036;52.138;5.236;2023-04-24T09:00:51;12.80;;;2.47;;
68214;SDS011;55036;52.138;5.236;2023-04-24T09:03:20;12.45;;;3.05;;
68214;SDS011;55036;52.138;5.236;2023-04-24T09:05:48;13.00;;;2.65;;
68214;SDS011;55036;52.138;5.236;2023-04-24T09:08:17;17.95;;;3.13;;
68214;SDS011;55036;52.138;5.236;2023-04-24T09:10:45;15.20;;;2.78;;
68214;SDS011;55036;52.138;5.236;2023-04-24T09:13:15;12.52;;;3.33;;
68214;SDS011;55036;52.138;5.236;2023-04-24T09:15:43;13.75;;;2.80;;
68214;SDS011;55036;52.138;5.236;2023-04-24T09:18:10;8.82;;;2.40;;
68214;SDS011;55036;52.138;5.236;2023-04-24T09:23:30;8.55;;;2.28;;
68214;SDS011;55036;52.138;5.236;2023-04-24T09:25:58;11.02;;;2.40;;
68214;SDS011;55036;52.138;5.236;2023-04-24T09:28:29;14.60;;;2.75;;
68214;SDS011;55036;52.138;5.236;2023-04-24T09:31:22;13.23;;;2.28;;
68214;SDS011;55036;52.138;5.236;2023-04-24T09:33:59;7.43;;;2.38;;
68214;SDS011;55036;52.138;5.236;2023-04-24T09:36:36;8.77;;;2.22;;
68214;SDS011;55036;52.138;5.236;2023-04-24T09:39:11;12.10;;;2.58;;
68214;SDS011;55036;52.138;5.236;2023-04-24T09:41:48;9.32;;;2.00;;
68214;SDS011;55036;52.138;5.236;2023-04-24T09:44:20;9.25;;;2.00;;
68214;SDS011;55036;52.138;5.236;2023-04-24T09:46:55;9.20;;;2.85;;
68214;SDS011;55036;52.138;5.236;2023-04-24T09:49:24;7.97;;;1.80;;
68214;SDS011;55036;52.138;5.236;2023-04-24T09:52:02;4.60;;;1.63;;
68214;SDS011;55036;52.138;5.236;2023-04-24T09:54:30;5.85;;;1.50;;
68214;SDS011;55036;52.138;5.236;2023-04-24T09:56:57;7.80;;;2.10;;
68214;SDS011;55036;52.138;5.236;2023-04-24T09:59:26;4.95;;;1.60;;
68214;SDS011;55036;52.138;5.236;2023-04-24T10:01:52;9.98;;;1.70;;
68214;SDS011;55036;52.138;5.236;2023-04-24T10:04:20;6.38;;;1.52;;
68214;SDS011;55036;52.138;5.236;2023-04-24T10:06:49;3.88;;;1.60;;
68214;SDS011;55036;52.138;5.236;2023-04-24T10:09:18;6.18;;;1.70;;
68214;SDS011;55036;52.138;5.236;2023-04-24T10:11:46;10.25;;;1.83;;
68214;SDS011;55036;52.138;5.236;2023-04-24T10:14:16;6.70;;;1.40;;
68214;SDS011;55036;52.138;5.236;2023-04-24T10:16:44;5.10;;;1.45;;
68214;SDS011;55036;52.138;5.236;2023-04-24T10:19:13;5.85;;;1.48;;
68214;SDS011;55036;52.138;5.236;2023-04-24T10:21:42;6.68;;;1.20;;
68214;SDS011;55036;52.138;5.236;2023-04-24T10:24:16;4.72;;;0.98;;
68214;SDS011;55036;52.138;5.236;2023-04-24T10:26:44;10.60;;;1.27;;
68214;SDS011;55036;52.138;5.236;2023-04-24T10:29:12;3.55;;;0.80;;
68214;SDS011;55036;52.138;5.236;2023-04-24T10:31:41;3.47;;;0.70;;
68214;SDS011;55036;52.138;5.236;2023-04-24T10:34:11;2.88;;;0.90;;
68214;SDS011;55036;52.138;5.236;2023-04-24T10:36:40;3.63;;;1.00;;
68214;SDS011;55036;52.138;5.236;2023-04-24T10:39:11;4.80;;;0.80;;
68214;SDS011;55036;52.138;5.236;2023-04-24T10:41:41;7.57;;;0.88;;
68214;SDS011;55036;52.138;5.236;2023-04-24T10:44:08;4.55;;;1.27;;
68214;SDS011;55036;52.138;5.236;2023-04-24T10:46:43;5.43;;;1.08;;
68214;SDS011;55036;52.138;5.236;2023-04-24T10:56:51;5.13;;;0.98;;
68214;SDS011;55036;52.138;5.236;2023-04-24T10:59:26;5.35;;;0.90;;
68214;SDS011;55036;52.138;5.236;2023-04-24T11:02:00;2.88;;;1.00;;
68214;SDS011;55036;52.138;5.236;2023-04-24T11:04:30;6.05;;;1.00;;
68214;SDS011;55036;52.138;5.236;2023-04-24T11:06:59;4.82;;;1.15;;
68214;SDS011;55036;52.138;5.236;2023-04-24T11:09:27;7.28;;;1.20;;
68214;SDS011;55036;52.138;5.236;2023-04-24T11:12:02;3.45;;;1.13;;
68214;SDS011;55036;52.138;5.236;2023-04-24T11:14:59;5.57;;;1.20;;
68214;SDS011;55036;52.138;5.236;2023-04-24T11:17:37;6.38;;;2.17;;
68214;SDS011;55036;52.138;5.236;2023-04-24T11:20:16;6.40;;;1.42;;
68214;SDS011;55036;52.138;5.236;2023-04-24T11:22:53;5.13;;;1.10;;
68214;SDS011;55036;52.138;5.236;2023-04-24T11:25:21;5.68;;;1.05;;
68214;SDS011;55036;52.138;5.236;2023-04-24T11:27:49;6.45;;;1.20;;
68214;SDS011;55036;52.138;5.236;2023-04-24T11:30:17;3.60;;;0.98;;
68214;SDS011;55036;52.138;5.236;2023-04-24T11:32:47;4.47;;;0.80;;
68214;SDS011;55036;52.138;5.236;2023-04-24T11:35:17;4.93;;;0.90;;
68214;SDS011;55036;52.138;5.236;2023-04-24T11:37:48;2.75;;;0.60;;
68214;SDS011;55036;52.138;5.236;2023-04-24T11:40:20;3.97;;;0.85;;
68214;SDS011;55036;52.138;5.236;2023-04-24T11:42:52;6.00;;;0.60;;
68214;SDS011;55036;52.138;5.236;2023-04-24T11:45:23;5.40;;;0.80;;
68214;SDS011;55036;52.138;5.236;2023-04-24T11:47:52;2.53;;;0.70;;
68214;SDS011;55036;52.138;5.236;2023-04-24T11:50:20;4.47;;;0.85;;
68214;SDS011;55036;52.138;5.236;2023-04-24T11:52:48;3.70;;;0.75;;
68214;SDS011;55036;52.138;5.236;2023-04-24T11:57:43;5.60;;;0.63;;
68214;SDS011;55036;52.138;5.236;2023-04-24T12:00:16;4.95;;;0.77;;
68214;SDS011;55036;52.138;5.236;2023-04-24T12:02:48;6.35;;;1.10;;
68214;SDS011;55036;52.138;5.236;2023-04-24T12:05:19;4.30;;;0.80;;
68214;SDS011;55036;52.138;5.236;2023-04-24T12:10:19;3.60;;;1.25;;
68214;SDS011;55036;52.138;5.236;2023-04-24T12:12:49;8.50;;;1.38;;
68214;SDS011;55036;52.138;5.236;2023-04-24T12:15:18;10.02;;;1.40;;
68214;SDS011;55036;52.138;5.236;2023-04-24T12:17:46;6.80;;;1.20;;
68214;SDS011;55036;52.138;5.236;2023-04-24T12:20:14;7.53;;;1.35;;
68214;SDS011;55036;52.138;5.236;2023-04-24T12:22:48;3.60;;;1.00;;
68214;SDS011;55036;52.138;5.236;2023-04-24T12:25:18;11.40;;;1.55;;
68214;SDS011;55036;52.138;5.236;2023-04-24T12:27:45;4.95;;;1.20;;
68214;SDS011;55036;52.138;5.236;2023-04-24T12:30:14;9.20;;;1.48;;
68214;SDS011;55036;52.138;5.236;2023-04-24T12:32:42;7.72;;;2.05;;
68214;SDS011;55036;52.138;5.236;2023-04-24T12:35:14;7.80;;;1.55;;
68214;SDS011;55036;52.138;5.236;2023-04-24T12:37:47;5.78;;;1.40;;
68214;SDS011;55036;52.138;5.236;2023-04-24T12:40:14;8.05;;;1.30;;
68214;SDS011;55036;52.138;5.236;2023-04-24T12:42:47;7.20;;;1.48;;
68214;SDS011;55036;52.138;5.236;2023-04-24T12:45:15;10.50;;;1.90;;
68214;SDS011;55036;52.138;5.236;2023-04-24T12:47:43;8.52;;;1.50;;
68214;SDS011;55036;52.138;5.236;2023-04-24T12:50:12;9.27;;;1.95;;
68214;SDS011;55036;52.138;5.236;2023-04-24T12:52:41;9.75;;;2.33;;
68214;SDS011;55036;52.138;5.236;2023-04-24T12:55:08;7.60;;;1.65;;
68214;SDS011;55036;52.138;5.236;2023-04-24T12:57:36;7.65;;;1.52;;
68214;SDS011;55036;52.138;5.236;2023-04-24T13:00:04;9.35;;;2.13;;
68214;SDS011;55036;52.138;5.236;2023-04-24T13:02:33;7.93;;;1.80;;
68214;SDS011;55036;52.138;5.236;2023-04-24T13:05:01;11.25;;;1.70;;
68214;SDS011;55036;52.138;5.236;2023-04-24T13:07:28;7.30;;;2.03;;
68214;SDS011;55036;52.138;5.236;2023-04-24T13:09:55;11.55;;;1.67;;
68214;SDS011;55036;52.138;5.236;2023-04-24T13:12:23;11.80;;;1.85;;
68214;SDS011;55036;52.138;5.236;2023-04-24T13:14:51;9.40;;;2.00;;
68214;SDS011;55036;52.138;5.236;2023-04-24T13:17:18;7.13;;;2.00;;
68214;SDS011;55036;52.138;5.236;2023-04-24T13:19:45;14.65;;;3.08;;
68214;SDS011;55036;52.138;5.236;2023-04-24T13:22:12;8.10;;;2.05;;
68214;SDS011;55036;52.138;5.236;2023-04-24T13:24:39;6.93;;;1.90;;
68214;SDS011;55036;52.138;5.236;2023-04-24T13:27:07;13.20;;;2.92;;
68214;SDS011;55036;52.138;5.236;2023-04-24T13:29:35;10.50;;;2.47;;
68214;SDS011;55036;52.138;5.236;2023-04-24T13:32:02;8.15;;;2.00;;
68214;SDS011;55036;52.138;5.236;2023-04-24T13:34:29;13.95;;;2.65;;
68214;SDS011;55036;52.138;5.236;2023-04-24T13:36:56;12.50;;;2.90;;
68214;SDS011;55036;52.138;5.236;2023-04-24T13:39:24;8.55;;;2.22;;
68214;SDS011;55036;52.138;5.236;2023-04-24T13:41:52;12.02;;;2.58;;
68214;SDS011;55036;52.138;5.236;2023-04-24T13:44:20;9.57;;;2.58;;
68214;SDS011;55036;52.138;5.236;2023-04-24T13:46:48;7.40;;;2.10;;
68214;SDS011;55036;52.138;5.236;2023-04-24T13:49:17;8.45;;;1.63;;
68214;SDS011;55036;52.138;5.236;2023-04-24T13:51:45;7.38;;;2.25;;
68214;SDS011;55036;52.138;5.236;2023-04-24T13:54:12;9.50;;;2.92;;
68214;SDS011;55036;52.138;5.236;2023-04-24T13:56:39;13.95;;;2.67;;
68214;SDS011;55036;52.138;5.236;2023-04-24T13:59:06;8.90;;;2.13;;
68214;SDS011;55036;52.138;5.236;2023-04-24T14:01:34;10.27;;;2.42;;
68214;SDS011;55036;52.138;5.236;2023-04-24T14:04:00;11.13;;;2.47;;
68214;SDS011;55036;52.138;5.236;2023-04-24T14:06:27;10.65;;;2.35;;
68214;SDS011;55036;52.138;5.236;2023-04-24T14:08:54;12.50;;;2.67;;
68214;SDS011;55036;52.138;5.236;2023-04-24T14:11:21;12.35;;;3.08;;
68214;SDS011;55036;52.138;5.236;2023-04-24T14:13:48;12.15;;;2.70;;
68214;SDS011;55036;52.138;5.236;2023-04-24T14:16:15;12.00;;;3.10;;
68214;SDS011;55036;52.138;5.236;2023-04-24T14:18:42;6.40;;;2.40;;
68214;SDS011;55036;52.138;5.236;2023-04-24T14:21:09;5.68;;;2.42;;
68214;SDS011;55036;52.138;5.236;2023-04-24T14:23:36;9.55;;;3.65;;
68214;SDS011;55036;52.138;5.236;2023-04-24T14:26:02;8.73;;;2.38;;
68214;SDS011;55036;52.138;5.236;2023-04-24T14:28:29;9.63;;;2.47;;
68214;SDS011;55036;52.138;5.236;2023-04-24T14:30:56;7.80;;;2.67;;
68214;SDS011;55036;52.138;5.236;2023-04-24T14:33:22;9.25;;;2.47;;
68214;SDS011;55036;52.138;5.236;2023-04-24T14:35:49;10.95;;;2.65;;
68214;SDS011;55036;52.138;5.236;2023-04-24T14:38:16;6.00;;;2.50;;
68214;SDS011;55036;52.138;5.236;2023-04-24T14:40:43;6.07;;;2.53;;
68214;SDS011;55036;52.138;5.236;2023-04-24T14:43:29;12.98;;;2.80;;
68214;SDS011;55036;52.138;5.236;2023-04-24T14:45:56;7.43;;;3.03;;
68214;SDS011;55036;52.138;5.236;2023-04-24T14:48:23;6.70;;;2.83;;
68214;SDS011;55036;52.138;5.236;2023-04-24T14:50:49;9.25;;;2.85;;
68214;SDS011;55036;52.138;5.236;2023-04-24T14:53:16;10.60;;;3.25;;
68214;SDS011;55036;52.138;5.236;2023-04-24T14:55:43;9.27;;;3.05;;
68214;SDS011;55036;52.138;5.236;2023-04-24T14:58:10;8.98;;;2.67;;
68214;SDS011;55036;52.138;5.236;2023-04-24T15:00:37;9.95;;;2.85;;
68214;SDS011;55036;52.138;5.236;2023-04-24T15:03:04;11.50;;;3.13;;
68214;SDS011;55036;52.138;5.236;2023-04-24T15:05:31;11.18;;;3.20;;
68214;SDS011;55036;52.138;5.236;2023-04-24T15:07:58;12.90;;;4.75;;